createdAt,value
2016-03-05T00:00:30.053Z,5.87
2016-03-05T00:01:30.055Z,5.94
2016-03-05T00:02:30.043Z,5.97
2016-03-05T00:03:30.045Z,5.89
2016-03-05T00:04:30.048Z,5.97
2016-03-05T00:05:30.051Z,5.86
2016-03-05T00:06:30.038Z,5.87
2016-03-05T00:07:30.056Z,5.99
2016-03-05T00:08:30.028Z,5.89
2016-03-05T00:09:30.061Z,5.89
2016-03-05T00:10:30.033Z,5.91
2016-03-05T00:11:30.036Z,5.98
2016-03-05T00:12:30.023Z,5.97
2016-03-05T00:13:30.026Z,5.99
2016-03-05T00:14:30.028Z,5.98
2016-03-05T00:15:30.031Z,6.01
2016-03-05T00:16:30.033Z,6.07
2016-03-05T00:17:30.037Z,6.02
2016-03-05T00:18:30.023Z,6.02
2016-03-05T00:19:30.072Z,6.05
2016-03-05T00:20:30.007Z,6.09
2016-03-05T00:21:29.998Z,6.16
2016-03-05T00:22:29.989Z,6.07
2016-03-05T00:23:29.964Z,6.11
2016-03-05T00:24:29.971Z,6.12
2016-03-05T00:25:29.951Z,6.16
2016-03-05T00:26:29.933Z,6.14
2016-03-05T00:27:29.931Z,6.14
2016-03-05T00:28:29.934Z,6.2
2016-03-05T00:29:29.973Z,6.14
2016-03-05T00:30:29.959Z,6.27
2016-03-05T00:31:29.945Z,6.26
2016-03-05T00:32:29.898Z,6.22
2016-03-05T00:33:29.929Z,6.26
2016-03-05T00:34:29.917Z,6.33
2016-03-05T00:35:29.902Z,6.28
2016-03-05T00:36:29.919Z,6.24
2016-03-05T00:37:29.905Z,6.22
2016-03-05T00:38:29.907Z,6.36
2016-03-05T00:39:29.908Z,6.24
2016-03-05T00:40:29.879Z,6.24
2016-03-05T00:41:29.865Z,6.26
2016-03-05T00:42:29.885Z,6.26
2016-03-05T00:43:29.872Z,6.26
2016-03-05T00:44:29.874Z,6.24
2016-03-05T00:45:29.862Z,6.19
2016-03-05T00:46:29.864Z,6.26
2016-03-05T00:47:29.867Z,6.2
2016-03-05T00:48:29.869Z,6.14
2016-03-05T00:49:29.857Z,6.11
2016-03-05T00:50:29.859Z,6.12
2016-03-05T00:51:29.846Z,6.01
2016-03-05T00:52:29.848Z,6.11
2016-03-05T00:53:29.851Z,6.14
2016-03-05T00:54:29.869Z,6.08
2016-03-05T00:55:29.857Z,6.07
2016-03-05T00:56:29.860Z,6.12
2016-03-05T00:57:29.847Z,6.12
2016-03-05T00:58:29.834Z,6.22
2016-03-05T00:59:29.852Z,6.22
2016-03-05T01:00:29.839Z,6.28
2016-03-05T01:01:29.826Z,6.17
2016-03-05T01:02:29.844Z,6.28
2016-03-05T01:03:29.848Z,6.24
2016-03-05T01:04:29.819Z,6.28
2016-03-05T01:05:29.822Z,6.26
2016-03-05T01:06:29.824Z,6.35
2016-03-05T01:07:29.827Z,6.36
2016-03-05T01:08:29.829Z,6.33
2016-03-05T01:09:29.817Z,6.44
2016-03-05T01:10:29.819Z,6.36
2016-03-05T01:11:29.807Z,6.39
2016-03-05T01:12:29.809Z,6.31
2016-03-05T01:13:29.812Z,6.27
2016-03-05T01:14:29.814Z,6.2
2016-03-05T01:15:29.832Z,6.3
2016-03-05T01:16:29.804Z,6.28
2016-03-05T01:17:29.791Z,6.26
2016-03-05T01:18:29.794Z,6.27
2016-03-05T01:19:29.796Z,6.14
2016-03-05T01:20:29.799Z,6.19
2016-03-05T01:21:29.786Z,6.12
2016-03-05T01:22:29.804Z,6.09
2016-03-05T01:23:29.791Z,6.12
2016-03-05T01:24:29.795Z,6.07
2016-03-05T01:25:29.782Z,6.07
2016-03-05T01:26:29.784Z,6.01
2016-03-05T01:27:29.771Z,6.11
2016-03-05T01:28:29.789Z,6.07
2016-03-05T01:29:29.792Z,5.94
2016-03-05T01:30:29.780Z,6.01
2016-03-05T01:31:29.782Z,5.99
2016-03-05T01:32:29.785Z,5.98
2016-03-05T01:33:29.772Z,5.94
2016-03-05T01:34:29.775Z,5.93
2016-03-05T01:35:29.777Z,5.98
2016-03-05T01:36:29.763Z,5.98
2016-03-05T01:37:29.751Z,5.87
2016-03-05T01:38:29.770Z,5.87
2016-03-05T01:39:29.757Z,5.9
2016-03-05T01:40:29.760Z,5.91
2016-03-05T01:41:29.746Z,5.94
2016-03-05T01:42:29.749Z,5.86
2016-03-05T01:43:29.751Z,5.89
2016-03-05T01:44:29.754Z,5.97
2016-03-05T01:45:29.741Z,5.87
2016-03-05T01:46:29.760Z,5.9
2016-03-05T01:47:29.732Z,5.91
2016-03-05T01:48:29.734Z,5.97
2016-03-05T01:49:29.737Z,5.93
2016-03-05T01:50:29.754Z,5.87
2016-03-05T01:51:29.726Z,5.84
2016-03-05T01:52:29.744Z,5.91
2016-03-05T01:53:29.732Z,5.91
2016-03-05T01:54:29.751Z,5.9
2016-03-05T01:55:29.722Z,5.9
2016-03-05T01:56:29.739Z,5.98
2016-03-05T01:57:29.711Z,5.98
2016-03-05T01:58:29.714Z,5.94
2016-03-05T01:59:29.717Z,5.89
2016-03-05T02:00:29.735Z,5.99
2016-03-05T02:01:29.723Z,5.91
2016-03-05T02:02:29.725Z,5.97
2016-03-05T02:03:29.711Z,6.01
2016-03-05T02:04:29.699Z,5.93
2016-03-05T02:05:29.716Z,5.98
2016-03-05T02:06:29.705Z,5.94
2016-03-05T02:07:29.723Z,5.97
2016-03-05T02:08:29.694Z,5.97
2016-03-05T02:09:29.713Z,5.91
2016-03-05T02:10:29.683Z,6.02
2016-03-05T02:11:29.702Z,5.97
2016-03-05T02:12:29.688Z,5.97
2016-03-05T02:13:29.691Z,5.87
2016-03-05T02:14:29.680Z,5.89
2016-03-05T02:15:29.682Z,5.91
2016-03-05T02:16:29.685Z,5.89
2016-03-05T02:17:29.691Z,5.91
2016-03-05T02:18:29.678Z,5.94
2016-03-05T02:19:29.665Z,5.94
2016-03-05T02:20:29.683Z,5.84
2016-03-05T02:21:29.670Z,5.84
2016-03-05T02:22:29.673Z,5.84
2016-03-05T02:23:29.677Z,5.8
2016-03-05T02:24:29.694Z,5.89
2016-03-05T02:25:29.525Z,5.82
2016-03-05T02:26:29.652Z,5.84
2016-03-05T02:27:29.671Z,5.8
2016-03-05T02:28:29.657Z,5.8
2016-03-05T02:29:29.660Z,5.76
2016-03-05T02:30:29.663Z,5.79
2016-03-05T02:31:29.651Z,5.79
2016-03-05T02:32:29.684Z,5.82
2016-03-05T02:33:29.640Z,5.83
2016-03-05T02:34:29.674Z,5.8
2016-03-05T02:35:29.662Z,5.86
2016-03-05T02:36:29.648Z,5.8
2016-03-05T02:37:29.635Z,5.84
2016-03-05T02:38:29.654Z,5.84
2016-03-05T02:39:29.625Z,5.84
2016-03-05T02:40:29.643Z,5.8
2016-03-05T02:41:29.630Z,5.86
2016-03-05T02:42:29.633Z,5.82
2016-03-05T02:43:29.620Z,5.82
2016-03-05T02:44:29.639Z,5.8
2016-03-05T02:45:29.611Z,5.87
2016-03-05T02:46:29.613Z,5.8
2016-03-05T02:47:29.616Z,5.82
2016-03-05T02:48:29.618Z,5.84
2016-03-05T02:49:29.621Z,5.84
2016-03-05T02:50:29.607Z,5.87
2016-03-05T02:51:29.595Z,5.91
2016-03-05T02:52:29.598Z,5.94
2016-03-05T02:53:29.600Z,5.86
2016-03-05T02:54:29.588Z,5.99
2016-03-05T02:55:29.605Z,5.87
2016-03-05T02:56:29.593Z,5.84
2016-03-05T02:57:29.595Z,5.91
2016-03-05T02:58:29.598Z,5.97
2016-03-05T02:59:29.601Z,5.93
2016-03-05T03:00:29.572Z,5.87
2016-03-05T03:01:29.590Z,5.89
2016-03-05T03:02:29.593Z,5.94
2016-03-05T03:03:29.579Z,5.86
2016-03-05T03:04:29.582Z,6.01
2016-03-05T03:05:29.429Z,5.97
2016-03-05T03:06:29.587Z,5.98
2016-03-05T03:07:29.420Z,5.98
2016-03-05T03:08:29.593Z,5.94
2016-03-05T03:09:29.565Z,5.97
2016-03-05T03:10:29.583Z,5.97
2016-03-05T03:11:29.555Z,5.93
2016-03-05T03:12:29.558Z,5.93
2016-03-05T03:13:29.561Z,5.89
2016-03-05T03:14:29.579Z,5.93
2016-03-05T03:15:29.550Z,5.89
2016-03-05T03:16:29.569Z,5.89
2016-03-05T03:17:29.555Z,5.9
2016-03-05T03:18:29.574Z,5.8
2016-03-05T03:19:29.544Z,5.79
2016-03-05T03:20:29.548Z,5.86
2016-03-05T03:21:29.551Z,5.84
2016-03-05T03:22:29.553Z,5.84
2016-03-05T03:23:29.541Z,5.8
2016-03-05T03:24:29.605Z,5.87
2016-03-05T03:25:29.546Z,5.8
2016-03-05T03:26:29.548Z,5.82
2016-03-05T03:27:29.551Z,5.84
2016-03-05T03:28:29.554Z,5.76
2016-03-05T03:29:29.557Z,5.73
2016-03-05T03:30:29.560Z,5.71
2016-03-05T03:31:29.546Z,5.76
2016-03-05T03:32:29.533Z,5.75
2016-03-05T03:33:29.520Z,5.73
2016-03-05T03:34:29.382Z,5.76
2016-03-05T03:35:29.541Z,5.8
2016-03-05T03:36:29.513Z,5.72
2016-03-05T03:37:29.515Z,5.75
2016-03-05T03:38:29.518Z,5.82
2016-03-05T03:39:29.520Z,5.76
2016-03-05T03:40:29.554Z,5.84
2016-03-05T03:41:29.370Z,5.8
2016-03-05T03:42:29.529Z,5.84
2016-03-05T03:43:29.517Z,5.83
2016-03-05T03:44:29.520Z,5.79
2016-03-05T03:45:29.522Z,5.8
2016-03-05T03:46:29.524Z,5.8
2016-03-05T03:47:29.495Z,5.73
2016-03-05T03:48:29.498Z,5.91
2016-03-05T03:49:29.500Z,5.76
2016-03-05T03:50:29.504Z,5.82
2016-03-05T03:51:29.522Z,5.82
2016-03-05T03:52:29.494Z,5.84
2016-03-05T03:53:29.496Z,5.83
2016-03-05T03:54:29.483Z,5.84
2016-03-05T03:55:29.501Z,5.84
2016-03-05T03:56:29.504Z,5.82
2016-03-05T03:57:29.475Z,5.84
2016-03-05T03:58:29.478Z,5.87
2016-03-05T03:59:29.481Z,5.86
2016-03-05T04:00:29.468Z,5.91
2016-03-05T04:01:29.471Z,5.89
2016-03-05T04:02:29.488Z,5.94
2016-03-05T04:03:29.476Z,5.9
2016-03-05T04:04:29.478Z,5.97
2016-03-05T04:05:29.326Z,5.86
2016-03-05T04:06:29.485Z,5.89
2016-03-05T04:07:29.487Z,5.8
2016-03-05T04:08:29.474Z,5.8
2016-03-05T04:09:29.492Z,5.84
2016-03-05T04:10:29.448Z,5.82
2016-03-05T04:11:29.451Z,5.82
2016-03-05T04:12:29.454Z,5.82
2016-03-05T04:13:29.457Z,5.75
2016-03-05T04:14:29.475Z,5.8
2016-03-05T04:15:29.462Z,5.75
2016-03-05T04:16:29.448Z,5.84
2016-03-05T04:17:29.450Z,5.84
2016-03-05T04:18:29.469Z,5.83
2016-03-05T04:19:29.457Z,5.8
2016-03-05T04:20:29.444Z,5.83
2016-03-05T04:21:29.447Z,5.75
2016-03-05T04:22:29.434Z,5.86
2016-03-05T04:23:29.436Z,5.9
2016-03-05T04:24:29.422Z,5.98
2016-03-05T04:25:29.410Z,5.97
2016-03-05T04:26:29.414Z,5.89
2016-03-05T04:27:29.431Z,5.97
2016-03-05T04:28:29.419Z,5.98
2016-03-05T04:29:29.436Z,5.99
2016-03-05T04:30:29.408Z,5.97
2016-03-05T04:31:29.410Z,5.94
2016-03-05T04:32:29.429Z,5.94
2016-03-05T04:33:29.415Z,5.94
2016-03-05T04:34:29.404Z,6.01
2016-03-05T04:35:29.422Z,5.99
2016-03-05T04:36:29.409Z,6.01
2016-03-05T04:37:29.396Z,5.94
2016-03-05T04:38:29.414Z,5.98
2016-03-05T04:39:29.401Z,5.99
2016-03-05T04:40:29.403Z,5.94
2016-03-05T04:41:29.422Z,6.02
2016-03-05T04:42:29.410Z,6.05
2016-03-05T04:43:29.381Z,6.05
2016-03-05T04:44:29.415Z,6.02
2016-03-05T04:45:29.386Z,6.05
2016-03-05T04:46:29.388Z,6.01
2016-03-05T04:47:29.375Z,6.02
2016-03-05T04:48:29.395Z,5.98
2016-03-05T04:49:29.381Z,5.98
2016-03-05T04:50:29.368Z,5.97
2016-03-05T04:51:29.370Z,5.91
2016-03-05T04:52:29.373Z,5.98
2016-03-05T04:53:29.375Z,5.97
2016-03-05T04:54:29.363Z,6.04
2016-03-05T04:55:29.381Z,5.99
2016-03-05T04:56:29.369Z,6.01
2016-03-05T04:57:29.387Z,5.93
2016-03-05T04:58:29.359Z,5.97
2016-03-05T04:59:29.361Z,5.98
2016-03-05T05:00:29.363Z,5.99
2016-03-05T05:01:29.351Z,5.91
2016-03-05T05:02:29.354Z,5.89
2016-03-05T05:03:29.403Z,5.98
2016-03-05T05:04:29.360Z,5.91
2016-03-05T05:05:29.362Z,5.99
2016-03-05T05:06:29.365Z,5.94
2016-03-05T05:07:29.352Z,5.87
2016-03-05T05:08:28.605Z,5.87
2016-03-05T05:09:29.357Z,5.84
2016-03-05T05:10:29.330Z,5.89
2016-03-05T05:11:29.333Z,5.79
2016-03-05T05:12:29.335Z,5.86
2016-03-05T05:13:29.338Z,5.76
2016-03-05T05:14:29.324Z,5.75
2016-03-05T05:15:29.343Z,5.68
2016-03-05T05:16:29.329Z,5.72
2016-03-05T05:17:29.332Z,5.68
2016-03-05T05:18:29.335Z,5.82
2016-03-05T05:19:29.338Z,5.75
2016-03-05T05:20:29.341Z,5.65
2016-03-05T05:21:29.312Z,5.68
2016-03-05T05:22:29.315Z,5.68
2016-03-05T05:23:29.317Z,5.68
2016-03-05T05:24:29.320Z,5.71
2016-03-05T05:25:29.322Z,5.66
2016-03-05T05:26:29.326Z,5.69
2016-03-05T05:27:29.313Z,5.65
2016-03-05T05:28:29.299Z,5.59
2016-03-05T05:29:29.318Z,5.61
2016-03-05T05:30:29.304Z,5.61
2016-03-05T05:31:29.307Z,5.61
2016-03-05T05:32:29.295Z,5.57
2016-03-05T05:33:29.297Z,5.51
2016-03-05T05:34:29.315Z,5.59
2016-03-05T05:35:29.286Z,5.59
2016-03-05T05:36:29.290Z,5.56
2016-03-05T05:37:29.292Z,5.48
2016-03-05T05:38:29.294Z,5.46
2016-03-05T05:39:29.282Z,5.54
2016-03-05T05:40:29.285Z,5.5
2016-03-05T05:41:29.288Z,5.54
2016-03-05T05:42:29.275Z,5.5
2016-03-05T05:43:29.277Z,5.51
2016-03-05T05:44:29.264Z,5.51
2016-03-05T05:45:29.267Z,5.51
2016-03-05T05:46:29.254Z,5.48
2016-03-05T05:47:29.272Z,5.51
2016-03-05T05:48:29.259Z,5.5
2016-03-05T05:49:29.263Z,5.56
2016-03-05T05:50:29.265Z,5.54
2016-03-05T05:51:29.252Z,5.51
2016-03-05T05:52:29.254Z,5.48
2016-03-05T05:53:29.241Z,5.5
2016-03-05T05:54:29.290Z,5.43
2016-03-05T05:55:29.263Z,5.41
2016-03-05T05:56:29.235Z,5.36
2016-03-05T05:57:29.252Z,5.36
2016-03-05T05:58:29.224Z,5.44
2016-03-05T05:59:29.242Z,5.39
2016-03-05T06:00:29.229Z,5.33
2016-03-05T06:01:29.217Z,5.44
2016-03-05T06:02:29.234Z,5.44
2016-03-05T06:03:29.223Z,5.39
2016-03-05T06:04:29.225Z,5.38
2016-03-05T06:05:29.212Z,5.44
2016-03-05T06:06:29.214Z,5.47
2016-03-05T06:07:29.248Z,5.51
2016-03-05T06:08:29.251Z,5.54
2016-03-05T06:09:29.222Z,5.59
2016-03-05T06:10:29.209Z,5.64
2016-03-05T06:11:29.212Z,5.61
2016-03-05T06:12:29.200Z,5.62
2016-03-05T06:13:29.202Z,5.65
2016-03-05T06:14:29.580Z,5.68
2016-03-05T06:15:29.269Z,5.68
2016-03-05T06:16:29.194Z,5.65
2016-03-05T06:17:29.196Z,5.75
2016-03-05T06:18:29.199Z,5.75
2016-03-05T06:19:29.187Z,5.79
2016-03-05T06:20:29.174Z,5.8
2016-03-05T06:21:29.192Z,5.76
2016-03-05T06:22:29.194Z,5.79
2016-03-05T06:23:29.181Z,5.82
2016-03-05T06:24:29.168Z,5.8
2016-03-05T06:25:29.171Z,5.76
2016-03-05T06:26:29.174Z,5.8
2016-03-05T06:27:29.162Z,5.87
2016-03-05T06:28:29.165Z,5.83
2016-03-05T06:29:29.182Z,5.83
2016-03-05T06:30:29.169Z,5.69
2016-03-05T06:31:29.156Z,5.73
2016-03-05T06:32:29.191Z,5.87
2016-03-05T06:33:29.146Z,5.83
2016-03-05T06:34:29.164Z,5.86
2016-03-05T06:35:29.168Z,5.89
2016-03-05T06:36:29.154Z,5.89
2016-03-05T06:37:29.141Z,5.9
2016-03-05T06:38:29.144Z,5.89
2016-03-05T06:39:29.131Z,5.93
2016-03-05T06:40:29.150Z,5.98
2016-03-05T06:41:29.137Z,5.98
2016-03-05T06:42:29.155Z,5.98
2016-03-05T06:43:29.158Z,5.99
2016-03-05T06:44:29.144Z,5.99
2016-03-05T06:45:29.147Z,6.07
2016-03-05T06:46:29.118Z,6.19
2016-03-05T06:47:29.121Z,6.16
2016-03-05T06:48:29.156Z,6.24
2016-03-05T06:49:29.111Z,6.33
2016-03-05T06:50:29.114Z,6.27
2016-03-05T06:51:29.132Z,6.24
2016-03-05T06:52:29.119Z,6.33
2016-03-05T06:53:29.106Z,6.35
2016-03-05T06:54:29.109Z,6.41
2016-03-05T06:55:29.112Z,6.41
2016-03-05T06:56:29.115Z,6.36
2016-03-05T06:57:29.102Z,6.38
2016-03-05T06:58:29.120Z,6.42
2016-03-05T06:59:29.107Z,6.38
2016-03-05T07:00:29.171Z,6.33
2016-03-05T07:01:29.174Z,6.39
2016-03-05T07:02:29.099Z,6.38
2016-03-05T07:03:29.101Z,6.35
2016-03-05T07:04:29.105Z,6.45
2016-03-05T07:05:29.185Z,6.45
2016-03-05T07:06:29.095Z,6.44
2016-03-05T07:07:29.097Z,6.41
2016-03-05T07:08:29.100Z,6.36
2016-03-05T07:09:29.086Z,6.45
2016-03-05T07:10:29.089Z,6.39
2016-03-05T07:11:29.092Z,6.39
2016-03-05T07:12:29.079Z,6.46
2016-03-05T07:13:29.081Z,6.45
2016-03-05T07:14:29.116Z,6.42
2016-03-05T07:15:29.071Z,6.48
2016-03-05T07:16:29.089Z,6.51
2016-03-05T07:17:29.077Z,6.49
2016-03-05T07:18:29.095Z,6.48
2016-03-05T07:19:29.067Z,6.54
2016-03-05T07:20:29.070Z,6.59
2016-03-05T07:21:29.088Z,6.6
2016-03-05T07:22:29.074Z,6.51
2016-03-05T07:23:29.077Z,6.51
2016-03-05T07:24:29.065Z,6.57
2016-03-05T07:25:29.099Z,6.57
2016-03-05T07:26:29.070Z,6.51
2016-03-05T07:27:29.088Z,6.57
2016-03-05T07:28:29.060Z,6.59
2016-03-05T07:29:29.094Z,6.49
2016-03-05T07:30:29.081Z,6.51
2016-03-05T07:31:29.068Z,6.54
2016-03-05T07:32:29.070Z,6.56
2016-03-05T07:33:29.058Z,6.6
2016-03-05T07:34:29.045Z,6.56
2016-03-05T07:35:29.047Z,6.66
2016-03-05T07:36:29.050Z,6.63
2016-03-05T07:37:29.053Z,6.62
2016-03-05T07:38:29.055Z,6.64
2016-03-05T07:39:29.058Z,6.66
2016-03-05T07:40:29.045Z,6.67
2016-03-05T07:41:29.064Z,6.7
2016-03-05T07:42:29.051Z,6.74
2016-03-05T07:43:29.069Z,6.77
2016-03-05T07:44:29.072Z,6.74
2016-03-05T07:45:29.074Z,6.72
2016-03-05T07:46:29.045Z,6.77
2016-03-05T07:47:29.127Z,6.84
2016-03-05T07:48:29.050Z,6.89
2016-03-05T07:49:29.070Z,6.85
2016-03-05T07:50:29.056Z,6.92
2016-03-05T07:51:29.044Z,6.92
2016-03-05T07:52:29.030Z,6.87
2016-03-05T07:53:29.064Z,6.88
2016-03-05T07:54:29.052Z,6.88
2016-03-05T07:55:29.023Z,6.96
2016-03-05T07:56:29.041Z,6.99
2016-03-05T07:57:29.029Z,7.02
2016-03-05T07:58:29.016Z,7.1
2016-03-05T07:59:29.034Z,7.13
2016-03-05T08:00:29.037Z,7.18
2016-03-05T08:01:29.023Z,7.24
2016-03-05T08:02:29.043Z,7.32
2016-03-05T08:03:29.029Z,7.32
2016-03-05T08:04:29.048Z,7.35
2016-03-05T08:05:29.177Z,7.4
2016-03-05T08:06:29.022Z,7.39
2016-03-05T08:07:29.009Z,7.48
2016-03-05T08:08:29.012Z,7.43
2016-03-05T08:09:29.030Z,7.38
2016-03-05T08:10:29.018Z,7.4
2016-03-05T08:11:29.020Z,7.4
2016-03-05T08:12:29.023Z,7.35
2016-03-05T08:13:29.026Z,7.38
2016-03-05T08:14:29.028Z,7.42
2016-03-05T08:15:29.015Z,7.36
2016-03-05T08:16:29.034Z,7.33
2016-03-05T08:17:29.005Z,7.33
2016-03-05T08:18:29.040Z,7.29
2016-03-05T08:19:29.010Z,7.39
2016-03-05T08:20:29.028Z,7.35
2016-03-05T08:21:29.031Z,7.32
2016-03-05T08:22:29.018Z,7.25
2016-03-05T08:23:29.021Z,7.24
2016-03-05T08:24:29.024Z,7.35
2016-03-05T08:25:29.011Z,7.35
2016-03-05T08:26:29.014Z,7.32
2016-03-05T08:27:29.017Z,7.36
2016-03-05T08:28:29.019Z,7.4
2016-03-05T08:29:29.006Z,7.39
2016-03-05T08:30:29.008Z,7.43
2016-03-05T08:31:29.027Z,7.42
2016-03-05T08:32:29.014Z,7.47
2016-03-05T08:33:29.016Z,7.51
2016-03-05T08:34:28.864Z,7.53
2016-03-05T08:35:29.007Z,7.56
2016-03-05T08:36:29.010Z,7.67
2016-03-05T08:37:29.012Z,7.79
2016-03-05T08:38:29.015Z,7.77
2016-03-05T08:39:29.018Z,7.85
2016-03-05T08:40:29.004Z,7.82
2016-03-05T08:41:29.007Z,7.88
2016-03-05T08:42:29.010Z,7.95
2016-03-05T08:43:28.997Z,7.91
2016-03-05T08:44:29.015Z,7.97
2016-03-05T08:45:29.002Z,7.87
2016-03-05T08:46:29.021Z,7.83
2016-03-05T08:47:29.023Z,7.97
2016-03-05T08:48:29.010Z,7.93
2016-03-05T08:49:29.012Z,7.87
2016-03-05T08:50:29.001Z,8
2016-03-05T08:51:29.003Z,7.98
2016-03-05T08:52:29.006Z,8.01
2016-03-05T08:53:29.008Z,7.95
2016-03-05T08:54:29.026Z,7.97
2016-03-05T08:55:28.998Z,7.95
2016-03-05T08:56:29.000Z,8
2016-03-05T08:57:29.019Z,7.9
2016-03-05T08:58:29.006Z,7.88
2016-03-05T08:59:29.040Z,7.93
2016-03-05T09:00:29.011Z,7.94
2016-03-05T09:01:29.014Z,7.95
2016-03-05T09:02:29.017Z,8
2016-03-05T09:03:29.020Z,8.01
2016-03-05T09:04:29.006Z,8.05
2016-03-05T09:05:29.024Z,8.03
2016-03-05T09:06:29.011Z,8.12
2016-03-05T09:07:29.014Z,8.08
2016-03-05T09:08:29.002Z,8.06
2016-03-05T09:09:29.020Z,8.01
2016-03-05T09:10:29.038Z,8.09
2016-03-05T09:11:29.010Z,8.03
2016-03-05T09:12:29.012Z,8.06
2016-03-05T09:13:28.999Z,7.95
2016-03-05T09:14:28.268Z,8.08
2016-03-05T09:15:29.021Z,8.08
2016-03-05T09:16:29.023Z,8.03
2016-03-05T09:17:29.010Z,7.98
2016-03-05T09:18:29.012Z,8.03
2016-03-05T09:19:29.015Z,8.06
2016-03-05T09:20:29.018Z,8.03
2016-03-05T09:21:29.006Z,8.03
2016-03-05T09:22:29.008Z,8.03
2016-03-05T09:23:29.057Z,8.06
2016-03-05T09:24:29.029Z,8.01
2016-03-05T09:25:29.016Z,8.01
2016-03-05T09:26:29.019Z,8.13
2016-03-05T09:27:29.010Z,8.06
2016-03-05T09:28:28.998Z,8.06
2016-03-05T09:29:28.986Z,8
2016-03-05T09:30:28.975Z,7.91
2016-03-05T09:31:28.963Z,7.94
2016-03-05T09:32:28.944Z,7.94
2016-03-05T09:33:28.941Z,7.95
2016-03-05T09:34:28.939Z,8.01
2016-03-05T09:35:28.921Z,8.05
2016-03-05T09:36:28.935Z,8
2016-03-05T09:37:28.935Z,8.16
2016-03-05T09:38:28.967Z,8.18
2016-03-05T09:39:28.937Z,8.18
2016-03-05T09:40:28.921Z,8.19
2016-03-05T09:41:28.922Z,8.15
2016-03-05T09:42:29.065Z,8.15
2016-03-05T09:43:28.927Z,8.23
2016-03-05T09:44:28.914Z,8.27
2016-03-05T09:45:28.916Z,8.12
2016-03-05T09:46:28.919Z,8.13
2016-03-05T09:47:28.921Z,8.08
2016-03-05T09:48:28.923Z,8.08
2016-03-05T09:49:28.909Z,8.01
2016-03-05T09:50:28.927Z,8.05
2016-03-05T09:51:28.930Z,8.2
2016-03-05T09:52:28.917Z,8.16
2016-03-05T09:53:28.919Z,8.18
2016-03-05T09:54:28.922Z,8.2
2016-03-05T09:55:28.925Z,8.24
2016-03-05T09:56:28.912Z,8.28
2016-03-05T09:57:28.930Z,8.38
2016-03-05T09:58:28.917Z,8.37
2016-03-05T09:59:28.936Z,8.38
2016-03-05T10:00:28.923Z,8.38
2016-03-05T10:01:28.925Z,8.44
2016-03-05T10:02:28.927Z,8.52
2016-03-05T10:03:28.930Z,8.49
2016-03-05T10:04:28.933Z,8.58
2016-03-05T10:05:28.921Z,8.6
2016-03-05T10:06:28.924Z,8.6
2016-03-05T10:07:28.941Z,8.61
2016-03-05T10:08:28.929Z,8.53
2016-03-05T10:09:28.946Z,8.63
2016-03-05T10:10:28.918Z,8.64
2016-03-05T10:11:28.936Z,8.76
2016-03-05T10:12:28.940Z,8.73
2016-03-05T10:13:28.926Z,8.82
2016-03-05T10:14:28.945Z,8.79
2016-03-05T10:15:28.917Z,8.89
2016-03-05T10:16:28.951Z,8.88
2016-03-05T10:17:28.968Z,8.89
2016-03-05T10:18:28.955Z,8.88
2016-03-05T10:19:28.927Z,8.87
2016-03-05T10:20:28.945Z,8.89
2016-03-05T10:21:28.933Z,8.87
2016-03-05T10:22:28.936Z,8.89
2016-03-05T10:23:28.938Z,8.84
2016-03-05T10:24:28.941Z,8.7
2016-03-05T10:25:28.943Z,8.78
2016-03-05T10:26:28.946Z,8.71
2016-03-05T10:27:28.949Z,8.64
2016-03-05T10:28:28.952Z,8.7
2016-03-05T10:29:28.955Z,8.7
2016-03-05T10:30:28.941Z,8.61
2016-03-05T10:31:28.975Z,8.58
2016-03-05T10:32:28.977Z,8.58
2016-03-05T10:33:28.949Z,8.55
2016-03-05T10:34:28.951Z,8.53
2016-03-05T10:35:28.954Z,8.58
2016-03-05T10:36:28.957Z,8.56
2016-03-05T10:37:28.960Z,8.6
2016-03-05T10:38:28.947Z,8.58
2016-03-05T10:39:28.965Z,8.58
2016-03-05T10:40:28.968Z,8.6
2016-03-05T10:41:28.954Z,8.58
2016-03-05T10:42:28.973Z,8.58
2016-03-05T10:43:28.959Z,8.56
2016-03-05T10:44:28.963Z,8.55
2016-03-05T10:45:28.951Z,8.58
2016-03-05T10:46:28.984Z,8.7
2016-03-05T10:47:28.956Z,8.67
2016-03-05T10:48:28.958Z,8.64
2016-03-05T10:49:28.961Z,8.63
2016-03-05T10:50:28.964Z,8.56
2016-03-05T10:51:28.967Z,8.56
2016-03-05T10:52:28.969Z,8.53
2016-03-05T10:53:28.956Z,8.49
2016-03-05T10:54:28.990Z,8.52
2016-03-05T10:55:28.977Z,8.6
2016-03-05T10:56:28.995Z,8.64
2016-03-05T10:57:28.966Z,8.66
2016-03-05T10:58:29.001Z,8.73
2016-03-05T10:59:28.971Z,8.71
2016-03-05T11:00:28.991Z,8.82
2016-03-05T11:01:28.993Z,8.87
2016-03-05T11:02:28.980Z,8.89
2016-03-05T11:03:28.998Z,8.92
2016-03-05T11:04:28.985Z,8.95
2016-03-05T11:05:29.004Z,8.97
2016-03-05T11:06:28.975Z,8.99
2016-03-05T11:07:28.993Z,8.99
2016-03-05T11:08:28.981Z,8.91
2016-03-05T11:09:28.983Z,8.88
2016-03-05T11:10:28.985Z,8.85
2016-03-05T11:11:28.988Z,8.81
2016-03-05T11:12:28.990Z,8.82
2016-03-05T11:13:29.010Z,8.73
2016-03-05T11:14:28.981Z,8.53
2016-03-05T11:15:29.031Z,8.55
2016-03-05T11:16:28.987Z,8.53
2016-03-05T11:17:29.004Z,8.6
2016-03-05T11:18:28.992Z,8.48
2016-03-05T11:19:28.994Z,8.53
2016-03-05T11:20:29.012Z,8.52
2016-03-05T11:21:29.001Z,8.55
2016-03-05T11:22:29.003Z,8.63
2016-03-05T11:23:29.006Z,8.78
2016-03-05T11:24:28.992Z,8.71
2016-03-05T11:25:29.042Z,8.81
2016-03-05T11:26:29.013Z,8.88
2016-03-05T11:27:29.000Z,9
2016-03-05T11:28:29.002Z,8.99
2016-03-05T11:29:29.005Z,8.89
2016-03-05T11:30:29.040Z,8.76
2016-03-05T11:31:29.011Z,8.7
2016-03-05T11:32:29.030Z,8.61
2016-03-05T11:33:29.001Z,8.56
2016-03-05T11:34:29.035Z,8.48
2016-03-05T11:35:29.006Z,8.52
2016-03-05T11:36:29.009Z,8.42
2016-03-05T11:37:29.044Z,8.45
2016-03-05T11:38:29.015Z,8.41
2016-03-05T11:39:29.033Z,8.44
2016-03-05T11:40:29.020Z,8.41
2016-03-05T11:41:29.023Z,8.36
2016-03-05T11:42:29.025Z,8.44
2016-03-05T11:43:29.028Z,8.38
2016-03-05T11:44:29.046Z,8.41
2016-03-05T11:45:29.018Z,8.31
2016-03-05T11:46:29.052Z,8.23
2016-03-05T11:47:29.023Z,8.15
2016-03-05T11:48:29.042Z,8.12
2016-03-05T11:49:29.028Z,8.24
2016-03-05T11:50:29.016Z,8.2
2016-03-05T11:51:29.017Z,8.13
2016-03-05T11:52:29.037Z,8.2
2016-03-05T11:53:29.039Z,8.23
2016-03-05T11:54:29.026Z,8.15
2016-03-05T11:55:29.044Z,8.13
2016-03-05T11:56:29.031Z,8.16
2016-03-05T11:57:29.034Z,8.16
2016-03-05T11:58:29.021Z,8.16
2016-03-05T11:59:29.040Z,8.16
2016-03-05T12:00:29.027Z,8.18
2016-03-05T12:01:29.030Z,8.18
2016-03-05T12:02:29.032Z,8.09
2016-03-05T12:03:29.035Z,7.98
2016-03-05T12:04:28.288Z,8.03
2016-03-05T12:05:29.024Z,8.01
2016-03-05T12:06:28.887Z,8.03
2016-03-05T12:07:29.061Z,8.01
2016-03-05T12:08:29.064Z,8.01
2016-03-05T12:09:29.036Z,8.09
2016-03-05T12:10:29.038Z,8
2016-03-05T12:11:28.274Z,8.1
2016-03-05T12:12:29.043Z,8.1
2016-03-05T12:13:29.030Z,8.06
2016-03-05T12:14:29.064Z,8.03
2016-03-05T12:15:29.036Z,8.01
2016-03-05T12:16:29.038Z,8.01
2016-03-05T12:17:29.041Z,8.06
2016-03-05T12:18:29.059Z,8.03
2016-03-05T12:19:29.046Z,8
2016-03-05T12:20:29.034Z,7.97
2016-03-05T12:21:29.036Z,8
2016-03-05T12:22:28.290Z,7.95
2016-03-05T12:23:29.057Z,7.87
2016-03-05T12:24:29.029Z,7.87
2016-03-05T12:25:29.048Z,7.88
2016-03-05T12:26:29.034Z,7.8
2016-03-05T12:27:29.036Z,7.83
2016-03-05T12:28:29.024Z,7.83
2016-03-05T12:29:29.027Z,7.87
2016-03-05T12:30:29.045Z,7.83
2016-03-05T12:31:29.033Z,7.77
2016-03-05T12:32:28.878Z,7.82
2016-03-05T12:33:29.178Z,7.91
2016-03-05T12:34:29.040Z,7.85
2016-03-05T12:35:29.027Z,7.91
2016-03-05T12:36:29.030Z,7.85
2016-03-05T12:37:29.032Z,7.94
2016-03-05T12:38:29.020Z,7.95
2016-03-05T12:39:29.022Z,7.94
2016-03-05T12:40:29.041Z,7.94
2016-03-05T12:41:29.027Z,7.85
2016-03-05T12:42:28.280Z,7.85
2016-03-05T12:43:29.033Z,7.82
2016-03-05T12:44:29.035Z,7.79
2016-03-05T12:45:29.023Z,7.88
2016-03-05T12:46:29.041Z,7.85
2016-03-05T12:47:29.029Z,7.76
2016-03-05T12:48:29.031Z,7.85
2016-03-05T12:49:29.018Z,7.79
2016-03-05T12:50:29.036Z,7.82
2016-03-05T12:51:28.915Z,7.7
2016-03-05T12:52:29.026Z,7.69
2016-03-05T12:53:29.028Z,7.76
2016-03-05T12:54:29.016Z,7.82
2016-03-05T12:55:29.018Z,7.76
2016-03-05T12:56:29.037Z,7.8
2016-03-05T12:57:29.039Z,7.79
2016-03-05T12:58:29.026Z,7.91
2016-03-05T12:59:29.014Z,7.94
2016-03-05T13:00:29.032Z,7.97
2016-03-05T13:01:29.050Z,7.85
2016-03-05T13:02:29.037Z,7.87
2016-03-05T13:03:29.039Z,7.87
2016-03-05T13:04:29.027Z,7.87
2016-03-05T13:05:29.108Z,7.94
2016-03-05T13:06:29.016Z,7.88
2016-03-05T13:07:29.020Z,7.85
2016-03-05T13:08:29.022Z,7.9
2016-03-05T13:09:29.024Z,7.91
2016-03-05T13:10:29.043Z,7.8
2016-03-05T13:11:29.030Z,7.8
2016-03-05T13:12:29.018Z,7.87
2016-03-05T13:13:29.020Z,7.97
2016-03-05T13:14:29.023Z,7.91
2016-03-05T13:15:29.026Z,7.87
2016-03-05T13:16:29.013Z,7.93
2016-03-05T13:17:29.015Z,7.82
2016-03-05T13:18:29.018Z,7.85
2016-03-05T13:19:29.129Z,7.9
2016-03-05T13:20:29.023Z,7.8
2016-03-05T13:21:29.026Z,7.88